Time;durP1;ratioP1;P1;durP2;ratioP2;P2;SDS_P1;SDS_P2;PMS_P1;PMS_P2;Temp;Humidity;BMP_temperature;BMP_pressure;BME280_temperature;BME280_humidity;BME280_pressure;Samples;Min_cycle;Max_cycle;Signal;HPM_P1;HPM_P2
2021/11/07 00:06:48;;;;;;;20.77;5.10;;;;;;;10.56;95.19;101782.53;5052458;28;20068;-75
2021/11/07 00:09:28;;;;;;;26.90;4.97;;;;;;;10.60;94.94;101789.34;5052579;28;20033;-79
2021/11/07 00:11:57;;;;;;;22.85;4.97;;;;;;;10.64;95.26;101790.78;5052563;28;20035;-77
2021/11/07 00:14:23;;;;;;;24.55;4.80;;;;;;;10.68;95.12;101775.44;5052061;28;20033;-76
2021/11/07 00:16:49;;;;;;;28.13;6.45;;;;;;;10.74;95.01;101777.63;5052289;28;20037;-79
2021/11/07 00:24:30;;;;;;;25.08;6.60;;;;;;;10.79;95.00;101783.44;5052645;28;20032;-79
2021/11/07 00:27:45;;;;;;;24.20;5.80;;;;;;;10.83;95.42;101778.75;5034519;28;20029;-78
2021/11/07 00:29:49;;;;;;;35.70;6.10;;;;;;;10.90;94.40;101766.66;5040922;28;20037;-78
2021/11/07 00:37:49;;;;;;;30.80;6.43;;;;;;;10.99;94.11;101783.72;5052146;28;20068;-77
2021/11/07 00:43:03;;;;;;;22.27;6.03;;;;;;;10.99;94.05;101779.25;5051873;28;20132;-78
2021/11/07 00:50:26;;;;;;;21.67;6.05;;;;;;;10.89;95.43;101763.13;5052171;28;20366;-79
2021/11/07 00:52:56;;;;;;;28.85;6.43;;;;;;;10.88;95.06;101776.56;5047287;28;20130;-74
2021/11/07 00:55:34;;;;;;;28.23;6.88;;;;;;;10.88;95.29;101755.28;5020367;28;20139;-76
2021/11/07 00:58:13;;;;;;;29.30;6.95;;;;;;;10.84;96.22;101757.34;5015053;28;20033;-77
2021/11/07 01:03:11;;;;;;;28.05;6.60;;;;;;;10.77;96.58;101756.09;5019300;28;20120;-77
2021/11/07 01:05:36;;;;;;;37.05;7.75;;;;;;;10.74;97.17;101759.84;5031442;28;20029;-78
2021/11/07 01:08:02;;;;;;;32.33;6.53;;;;;;;10.71;97.02;101756.56;5031896;28;20087;-77
2021/11/07 01:10:28;;;;;;;30.70;6.65;;;;;;;10.72;97.33;101752.97;5031695;28;20398;-77
2021/11/07 01:12:55;;;;;;;26.33;6.65;;;;;;;10.67;98.01;101750.63;5031988;28;20033;-77
2021/11/07 01:15:21;;;;;;;28.10;7.10;;;;;;;10.65;98.25;101743.75;5032166;28;20029;-76
2021/11/07 01:17:47;;;;;;;30.38;7.50;;;;;;;10.64;98.42;101747.38;5031700;28;20508;-76
2021/11/07 01:20:13;;;;;;;23.08;6.70;;;;;;;10.64;98.41;101748.19;5032002;28;20065;-76
2021/11/07 01:22:57;;;;;;;25.45;7.20;;;;;;;10.66;98.29;101746.28;5031605;28;20030;-77
2021/11/07 01:25:25;;;;;;;27.42;7.32;;;;;;;10.66;98.52;101753.41;5031982;28;20037;-76
2021/11/07 01:27:52;;;;;;;25.95;7.07;;;;;;;10.68;98.49;101744.34;5031455;28;20049;-78
2021/11/07 01:30:22;;;;;;;25.08;7.03;;;;;;;10.73;97.47;101739.53;5032164;28;20091;-75
2021/11/07 01:32:53;;;;;;;28.02;7.57;;;;;;;10.73;97.70;101747.53;5031604;28;20045;-76
2021/11/07 01:40:38;;;;;;;29.33;7.35;;;;;;;10.82;96.97;101737.94;5035332;28;20045;-76
2021/11/07 01:43:04;;;;;;;24.27;6.30;;;;;;;10.86;96.73;101738.56;5035196;28;20088;-77
2021/11/07 01:45:37;;;;;;;18.67;5.82;;;;;;;10.90;96.02;101722.25;5035463;28;20508;-78
2021/11/07 01:48:09;;;;;;;21.58;5.88;;;;;;;10.99;95.11;101734.00;5035327;28;20072;-79
2021/11/07 01:50:40;;;;;;;;;;;;;;;11.03;94.08;101731.91;5035111;28;20107;-79
2021/11/07 01:53:15;;;;;;;18.98;5.50;;;;;;;11.08;93.84;101724.44;5035562;28;19967;-79
2021/11/07 01:55:40;;;;;;;26.23;7.38;;;;;;;11.06;93.85;101726.34;5034830;28;20453;-79
2021/11/07 01:58:06;;;;;;;28.52;5.80;;;;;;;11.04;94.05;101728.31;5035074;28;20036;-80
2021/11/07 02:00:32;;;;;;;21.58;5.57;;;;;;;11.01;93.46;101725.88;5035017;28;20342;-79
2021/11/07 02:02:58;;;;;;;19.92;5.68;;;;;;;11.07;93.46;101715.56;5034451;28;20033;-78
2021/11/07 02:05:24;;;;;;;22.17;5.57;;;;;;;11.05;93.74;101709.53;5035216;28;20045;-80
2021/11/07 02:07:49;;;;;;;20.85;5.57;;;;;;;11.10;93.22;101699.34;5034725;28;20030;-76
2021/11/07 02:10:17;;;;;;;27.27;6.05;;;;;;;11.11;93.16;101690.41;5035073;28;20030;-80
2021/11/07 02:12:43;;;;;;;27.85;6.53;;;;;;;11.10;92.83;101695.84;5034503;28;20036;-77
2021/11/07 02:15:14;;;;;;;18.77;5.28;;;;;;;11.08;92.91;101685.31;5034809;28;20038;-80
2021/11/07 02:17:41;;;;;;;24.05;5.50;;;;;;;11.11;92.30;101690.41;5034270;28;20033;-80
2021/11/07 02:20:11;;;;;;;22.38;5.63;;;;;;;11.09;92.41;101681.69;5034878;28;20032;-81
2021/11/07 02:22:38;;;;;;;19.07;5.43;;;;;;;11.07;92.71;101688.94;5034563;28;20033;-80
2021/11/07 02:25:05;;;;;;;22.27;4.97;;;;;;;11.08;92.48;101703.13;5034816;28;20268;-79
2021/11/07 02:27:31;;;;;;;22.40;5.57;;;;;;;11.13;90.65;101714.25;5034542;28;20072;-79
2021/11/07 02:29:56;;;;;;;15.68;4.57;;;;;;;11.10;91.06;101687.88;5033949;28;20064;-78
2021/11/07 02:32:23;;;;;;;22.05;5.25;;;;;;;11.04;91.35;101697.19;5034345;28;20033;-80
2021/11/07 02:34:49;;;;;;;20.35;5.38;;;;;;;10.98;92.42;101694.16;5034162;28;20030;-79
2021/11/07 02:37:15;;;;;;;28.42;5.13;;;;;;;10.90;92.99;101686.78;5034409;28;20026;-79
2021/11/07 02:39:40;;;;;;;19.17;4.78;;;;;;;10.81;90.37;101680.38;5033913;28;20132;-79
2021/11/07 02:42:06;;;;;;;19.95;4.82;;;;;;;10.71;91.55;101684.72;5034093;28;20449;-79
2021/11/07 02:44:37;;;;;;;20.90;4.57;;;;;;;10.57;91.33;101685.78;5034367;28;20092;-80
2021/11/07 02:47:09;;;;;;;22.48;4.68;;;;;;;10.52;90.45;101688.78;5034278;28;20035;-79
2021/11/07 02:49:35;;;;;;;20.92;4.80;;;;;;;10.45;91.86;101689.38;5033264;28;20029;-78
2021/11/07 02:52:01;;;;;;;21.08;4.45;;;;;;;10.39;91.68;101694.22;5033755;28;20073;-78
2021/11/07 02:54:27;;;;;;;26.65;4.78;;;;;;;10.34;92.19;101693.69;5034063;28;20053;-78
2021/11/07 02:56:56;;;;;;;16.42;4.00;;;;;;;10.40;90.89;101692.38;5033531;28;20439;-78
2021/11/07 02:59:27;;;;;;;26.15;4.47;;;;;;;10.40;89.15;101689.72;5033904;28;20442;-80
2021/11/07 03:01:55;;;;;;;26.52;5.05;;;;;;;10.38;87.68;101697.00;5033685;28;20108;-78
2021/11/07 03:04:22;;;;;;;22.42;4.72;;;;;;;10.37;85.82;101692.63;5033962;28;20033;-80
2021/11/07 03:06:47;;;;;;;15.15;3.53;;;;;;;10.36;82.61;101699.75;5033371;28;20033;-78
2021/11/07 03:09:19;;;;;;;22.95;3.70;;;;;;;10.34;82.63;101701.69;5033854;28;20116;-80
2021/11/07 03:11:45;;;;;;;16.05;3.70;;;;;;;10.30;82.67;101700.22;5033244;28;20052;-79
2021/11/07 03:14:18;;;;;;;21.95;4.13;;;;;;;10.28;80.49;101702.13;5033567;28;20046;-79
2021/11/07 03:16:44;;;;;;;18.45;4.10;;;;;;;10.20;78.79;101702.69;5033355;28;20033;-79
2021/11/07 03:19:11;;;;;;;14.95;3.35;;;;;;;10.14;79.32;101713.81;5033707;28;20184;-79
2021/11/07 03:21:37;;;;;;;22.98;3.22;;;;;;;10.09;76.15;101715.97;5033602;28;20025;-80
2021/11/07 03:24:03;;;;;;;18.73;3.53;;;;;;;10.05;76.27;101720.66;5033045;28;20064;-78
2021/11/07 03:26:29;;;;;;;19.35;3.28;;;;;;;10.01;71.13;101705.03;5033282;28;20580;-78
2021/11/07 03:29:01;;;;;;;19.58;3.60;;;;;;;10.04;72.88;101694.19;5033106;28;20041;-79
2021/11/07 03:34:19;;;;;;;17.95;3.40;;;;;;;9.98;71.34;101699.94;5018733;28;20504;-78
2021/11/07 03:36:50;;;;;;;14.55;2.95;;;;;;;10.04;70.28;101699.50;5032787;28;20100;-77
2021/11/07 03:39:16;;;;;;;18.25;3.17;;;;;;;10.02;69.73;101688.97;5015824;28;20037;-79
2021/11/07 03:41:43;;;;;;;12.43;2.67;;;;;;;10.08;68.04;101687.66;5033223;28;20056;-76
2021/11/07 03:44:09;;;;;;;20.30;3.38;;;;;;;10.06;70.06;101695.75;5015258;28;20472;-78
2021/11/07 03:46:36;;;;;;;13.93;3.08;;;;;;;9.99;71.15;101683.06;5033142;28;20030;-79
2021/11/07 03:49:03;;;;;;;23.42;3.58;;;;;;;9.93;70.83;101671.06;5032962;28;20037;-78
2021/11/07 03:51:30;;;;;;;22.30;3.47;;;;;;;9.92;71.13;101681.81;5033035;28;20029;-79
2021/11/07 03:53:57;;;;;;;15.45;3.10;;;;;;;9.92;71.78;101665.84;5032772;28;20048;-80
2021/11/07 03:56:22;;;;;;;22.15;3.97;;;;;;;9.88;72.87;101668.75;5033148;28;20458;-81
2021/11/07 03:58:48;;;;;;;22.40;3.90;;;;;;;9.86;72.29;101668.00;5032629;28;20034;-80
2021/11/07 04:01:13;;;;;;;19.77;3.33;;;;;;;9.91;72.72;101670.31;5032735;28;20060;-81
2021/11/07 04:03:39;;;;;;;21.33;3.17;;;;;;;9.93;73.22;101672.84;5032929;28;20056;-79
2021/11/07 04:06:04;;;;;;;24.73;4.05;;;;;;;9.94;73.13;101672.75;5032506;28;20025;-79
2021/11/07 04:08:30;;;;;;;23.17;4.25;;;;;;;9.93;74.43;101672.84;5033289;28;20112;-80
2021/11/07 04:10:55;;;;;;;26.58;4.38;;;;;;;9.95;74.65;101671.78;5032586;28;20068;-78
2021/11/07 04:13:21;;;;;;;23.70;3.78;;;;;;;9.98;75.39;101682.19;5032917;28;20030;-79
2021/11/07 04:15:47;;;;;;;20.42;3.88;;;;;;;9.97;76.65;101684.97;5032811;28;20033;-80
2021/11/07 04:18:12;;;;;;;20.63;4.22;;;;;;;9.94;76.64;101685.19;5032680;28;20441;-81
2021/11/07 04:20:38;;;;;;;15.68;3.83;;;;;;;10.01;75.91;101666.00;5032421;28;20493;-78
2021/11/07 04:23:04;;;;;;;17.95;3.83;;;;;;;10.03;75.64;101671.19;5032280;28;20377;-78
2021/11/07 04:25:30;;;;;;;19.13;4.82;;;;;;;10.03;73.98;101682.69;5033065;28;20044;-78
2021/11/07 04:27:56;;;;;;;19.48;3.97;;;;;;;10.04;75.00;101681.72;5032329;28;20033;-77
2021/11/07 04:30:21;;;;;;;22.70;4.20;;;;;;;10.04;73.67;101663.09;5032554;28;20120;-78
2021/11/07 04:32:46;;;;;;;21.33;4.10;;;;;;;10.00;73.11;101696.22;5032500;28;20472;-77
2021/11/07 04:35:13;;;;;;;16.85;3.70;;;;;;;9.99;72.29;101696.34;5032051;28;20039;-78
2021/11/07 04:37:42;;;;;;;23.85;4.05;;;;;;;9.91;72.49;101688.91;5015226;28;20484;-78
2021/11/07 04:40:09;;;;;;;30.58;4.47;;;;;;;9.84;72.80;101675.25;5032062;28;20072;-79
2021/11/07 04:42:34;;;;;;;28.52;4.32;;;;;;;9.76;72.34;101687.41;5032514;28;20076;-77
2021/11/07 04:45:00;;;;;;;27.33;4.10;;;;;;;9.74;72.38;101689.34;5032084;28;20419;-78
2021/11/07 04:47:26;;;;;;;18.52;3.65;;;;;;;9.68;72.56;101661.41;5014729;28;20056;-77
2021/11/07 04:49:53;;;;;;;21.73;3.83;;;;;;;9.65;72.38;101677.56;5014220;28;20067;-75
2021/11/07 04:52:19;;;;;;;22.73;3.92;;;;;;;9.69;70.27;101677.22;5032375;28;20037;-78
2021/11/07 04:54:45;;;;;;;17.63;2.72;;;;;;;9.78;69.27;101680.16;5032276;28;20037;-78
2021/11/07 04:57:10;;;;;;;19.23;3.63;;;;;;;9.79;69.28;101690.69;5032095;28;20994;-78
2021/11/07 04:59:36;;;;;;;25.35;4.03;;;;;;;9.80;70.35;101667.63;5032359;28;20025;-78
2021/11/07 05:02:02;;;;;;;22.15;4.30;;;;;;;9.72;71.23;101676.16;5031941;28;20056;-79
2021/11/07 05:04:28;;;;;;;15.18;3.30;;;;;;;9.70;68.97;101681.59;5032125;28;20078;-77
2021/11/07 05:06:53;;;;;;;19.10;3.15;;;;;;;9.66;69.54;101684.59;5032011;28;20029;-76
2021/11/07 05:09:19;;;;;;;21.75;3.42;;;;;;;9.62;70.30;101680.44;5032476;28;20037;-77
2021/11/07 05:11:44;;;;;;;17.25;3.67;;;;;;;9.58;69.09;101684.28;5032400;28;20069;-77
2021/11/07 05:14:10;;;;;;;21.83;3.70;;;;;;;9.56;69.05;101681.75;5035181;28;20065;-80
2021/11/07 05:16:35;;;;;;;17.77;3.10;;;;;;;9.56;68.29;101680.91;5035931;28;20116;-78
2021/11/07 05:19:02;;;;;;;20.10;3.53;;;;;;;9.53;68.19;101682.81;5035488;28;20060;-77
2021/11/07 05:21:28;;;;;;;18.92;3.58;;;;;;;9.44;70.72;101678.16;5036013;28;20420;-78
2021/11/07 05:23:53;;;;;;;17.45;3.30;;;;;;;9.28;71.10;101681.06;5036151;28;20044;-78
2021/11/07 05:26:19;;;;;;;20.35;3.60;;;;;;;9.15;70.25;101683.78;5035496;28;20033;-78
2021/11/07 05:28:44;;;;;;;19.80;3.40;;;;;;;9.09;70.00;101696.63;5036048;28;20117;-76
2021/11/07 05:31:10;;;;;;;23.63;3.83;;;;;;;9.13;69.60;101709.56;5035206;28;20042;-78
2021/11/07 05:33:35;;;;;;;21.65;4.18;;;;;;;9.19;70.15;101689.69;5035493;28;20485;-76
2021/11/07 05:36:02;;;;;;;22.65;4.88;;;;;;;9.27;70.43;101692.66;5035293;28;20049;-77
2021/11/07 05:38:27;;;;;;;27.92;3.78;;;;;;;9.28;71.51;101691.69;5035439;28;20473;-77
2021/11/07 05:40:52;;;;;;;21.55;4.20;;;;;;;9.21;72.50;101692.25;5035572;28;20036;-78
2021/11/07 05:43:20;;;;;;;26.70;4.13;;;;;;;9.13;72.64;101682.19;5035135;28;20060;-77
2021/11/07 05:45:46;;;;;;;20.33;3.60;;;;;;;9.21;72.18;101695.78;5035401;28;20033;-76
2021/11/07 05:48:12;;;;;;;24.55;3.60;;;;;;;9.24;72.14;101684.91;5034864;28;20055;-79
2021/11/07 05:50:37;;;;;;;25.15;3.55;;;;;;;9.27;71.37;101682.06;5035509;28;20033;-77
2021/11/07 05:53:03;;;;;;;29.73;3.75;;;;;;;9.26;72.35;101680.34;5035070;28;20033;-77
2021/11/07 05:55:28;;;;;;;20.98;3.85;;;;;;;9.20;72.34;101701.19;5035385;28;20045;-78
2021/11/07 05:57:54;;;;;;;20.48;3.33;;;;;;;9.14;72.82;101702.47;5035325;28;20480;-75
2021/11/07 06:00:19;;;;;;;30.38;3.65;;;;;;;9.05;74.50;101700.47;5034570;28;20128;-77
2021/11/07 06:02:46;;;;;;;21.90;3.50;;;;;;;9.06;72.26;101708.31;5034942;28;20051;-78
2021/11/07 06:05:14;;;;;;;26.95;3.90;;;;;;;9.07;72.75;101702.03;5034759;28;20091;-78
2021/11/07 06:07:39;;;;;;;21.83;4.03;;;;;;;9.05;72.68;101706.63;5017638;28;20021;-78
2021/11/07 06:10:05;;;;;;;17.42;3.65;;;;;;;9.07;72.24;101706.50;5034417;28;20033;-76
2021/11/07 06:12:31;;;;;;;26.27;4.15;;;;;;;9.09;71.83;101707.22;5035065;28;20087;-76
2021/11/07 06:14:56;;;;;;;20.90;3.50;;;;;;;9.10;71.12;101701.81;5034821;28;20366;-76
2021/11/07 06:17:22;;;;;;;24.08;4.28;;;;;;;9.09;71.64;101701.94;5034180;28;20025;-77
2021/11/07 06:19:47;;;;;;;18.77;3.60;;;;;;;9.03;72.23;101697.06;5034686;28;20029;-77
2021/11/07 06:22:12;;;;;;;21.50;3.80;;;;;;;8.97;72.69;101714.25;5034129;28;20037;-78
2021/11/07 06:24:39;;;;;;;21.50;3.80;;;;;;;8.92;72.98;101713.75;5034348;28;20042;-77
2021/11/07 06:27:05;;;;;;;27.70;3.95;;;;;;;8.91;73.22;101709.38;5034084;28;20037;-78
2021/11/07 06:29:31;;;;;;;18.25;3.75;;;;;;;8.89;73.88;101706.00;5034478;28;20509;-77
2021/11/07 06:31:57;;;;;;;22.98;3.95;;;;;;;8.87;73.29;101691.97;5034476;28;20037;-76
2021/11/07 06:34:24;;;;;;;21.55;4.05;;;;;;;8.86;73.90;101691.13;5033877;28;20086;-76
2021/11/07 06:36:50;;;;;;;27.38;4.10;;;;;;;8.88;73.33;101712.25;5034352;28;20056;-76
2021/11/07 06:39:16;;;;;;;16.88;3.08;;;;;;;8.91;72.68;101698.75;5034391;28;20034;-76
2021/11/07 06:41:43;;;;;;;16.08;3.42;;;;;;;8.92;72.01;101708.44;5034207;28;20041;-77
2021/11/07 06:44:09;;;;;;;21.85;3.60;;;;;;;8.83;73.50;101724.03;5033542;28;20149;-76
2021/11/07 06:46:35;;;;;;;30.67;3.38;;;;;;;8.84;73.19;101722.25;5033936;28;20038;-78
2021/11/07 06:49:07;;;;;;;11.98;2.97;;;;;;;8.96;72.16;101718.72;5034187;28;20053;-75
2021/11/07 06:51:32;;;;;;;;;;;;;;;8.98;71.81;101727.41;5016860;28;20071;-79
2021/11/07 06:53:58;;;;;;;15.45;3.30;;;;;;;8.98;72.44;101724.75;5034249;28;19944;-77
2021/11/07 06:56:24;;;;;;;21.67;3.55;;;;;;;9.02;72.33;101719.22;5033627;28;20631;-79
2021/11/07 06:58:50;;;;;;;24.83;3.97;;;;;;;9.03;72.65;101732.41;5034135;28;20068;-79
2021/11/07 07:01:15;;;;;;;23.48;3.95;;;;;;;8.98;73.46;101726.56;5033417;28;20033;-77
2021/11/07 07:03:41;;;;;;;15.40;2.80;;;;;;;8.96;73.04;101737.31;5034046;28;20038;-77
2021/11/07 07:06:07;;;;;;;27.73;3.60;;;;;;;8.94;72.85;101725.97;5033538;28;20044;-77
2021/11/07 07:08:53;;;;;;;17.75;3.20;;;;;;;8.96;72.31;101710.75;5016240;28;20473;-77
2021/11/07 07:11:27;;;;;;;16.15;2.72;;;;;;;8.99;71.95;101725.63;5018691;28;20037;-77
2021/11/07 07:14:03;;;;;;;21.02;3.55;;;;;;;8.94;72.69;101733.03;5033714;28;20389;-78
2021/11/07 07:16:36;;;;;;;18.13;2.90;;;;;;;8.92;72.62;101732.31;5033333;28;20034;-77
2021/11/07 07:22:37;;;;;;;24.45;4.00;;;;;;;8.96;73.86;101725.84;5033387;28;20151;-77
2021/11/07 07:27:33;;;;;;;19.63;2.80;;;;;;;8.93;73.27;101726.06;5032881;28;20159;-77
2021/11/07 07:33:13;;;;;;;18.65;3.47;;;;;;;8.91;73.81;101726.16;4991798;28;20580;-77
2021/11/07 07:35:38;;;;;;;25.20;3.63;;;;;;;8.94;73.96;101728.59;5010294;28;20041;-78
2021/11/07 07:38:04;;;;;;;18.65;4.07;;;;;;;8.98;74.79;101740.69;5033229;28;20539;-77
2021/11/07 07:40:29;;;;;;;19.02;3.45;;;;;;;9.06;73.96;101740.19;5032439;28;20441;-78
2021/11/07 07:42:55;;;;;;;24.05;4.10;;;;;;;9.12;72.71;101745.06;5032995;28;20049;-79
2021/11/07 07:45:21;;;;;;;18.80;3.38;;;;;;;9.16;72.13;101738.56;5032955;28;20125;-75
2021/11/07 07:47:47;;;;;;;23.30;3.88;;;;;;;9.24;72.36;101738.03;5033192;28;20175;-79
2021/11/07 07:50:15;;;;;;;16.75;3.13;;;;;;;9.29;71.85;101745.69;5032481;28;20401;-78
2021/11/07 07:52:41;;;;;;;18.92;3.13;;;;;;;9.41;71.44;101751.91;5032851;28;20483;-78
2021/11/07 07:55:08;;;;;;;33.33;4.70;;;;;;;9.48;71.50;101747.84;5032939;28;20390;-79
2021/11/07 07:57:34;;;;;;;25.85;3.70;;;;;;;9.49;72.02;101752.22;5032422;28;20036;-76
2021/11/07 08:00:00;;;;;;;28.05;4.15;;;;;;;9.48;71.36;101753.16;5032856;28;20052;-75
2021/11/07 08:02:25;;;;;;;28.10;5.82;;;;;;;9.46;71.89;101755.94;5032338;28;20055;-78
2021/11/07 08:04:52;;;;;;;21.40;3.47;;;;;;;9.43;71.24;101753.50;5032872;28;20121;-77
2021/11/07 08:07:17;;;;;;;18.00;2.85;;;;;;;9.44;71.07;101741.91;5032494;28;20039;-78
2021/11/07 08:09:43;;;;;;;18.80;3.30;;;;;;;9.43;71.64;101750.00;5032843;28;20029;-78
2021/11/07 08:12:08;;;;;;;25.85;3.88;;;;;;;9.40;71.38;101736.94;5032703;28;20044;-77
2021/11/07 08:14:35;;;;;;;18.70;3.25;;;;;;;9.41;71.50;101734.16;5032193;28;20025;-79
2021/11/07 08:17:01;;;;;;;16.92;2.83;;;;;;;9.37;71.22;101740.66;5032582;28;20041;-77
2021/11/07 08:19:26;;;;;;;17.85;3.22;;;;;;;9.35;71.56;101746.06;5032461;28;20036;-76
2021/11/07 08:21:52;;;;;;;21.48;3.55;;;;;;;9.43;71.02;101752.66;5032463;28;20513;-74
2021/11/07 08:24:17;;;;;;;19.33;4.03;;;;;;;9.48;71.54;101754.03;5031922;28;20030;-77
2021/11/07 08:26:43;;;;;;;18.00;3.22;;;;;;;9.57;70.12;101743.69;5032341;28;20033;-77
2021/11/07 08:29:11;;;;;;;17.48;2.78;;;;;;;9.65;70.31;101736.84;5032872;28;20052;-76
2021/11/07 08:31:38;;;;;;;26.83;3.58;;;;;;;9.74;70.42;101756.63;5032275;28;20037;-78
2021/11/07 08:34:05;;;;;;;21.58;3.75;;;;;;;9.80;69.31;101750.00;5032414;28;20038;-76
2021/11/07 08:39:13;;;;;;;19.17;3.78;;;;;;;9.67;71.08;101753.56;5015797;28;20473;-80
2021/11/07 08:41:46;;;;;;;17.67;3.13;;;;;;;9.60;70.32;101757.63;5032088;28;20104;-82
2021/11/07 09:00:44;;;;;;;25.88;3.70;;;;;;;9.88;67.41;101743.19;4991449;28;20430;-81
2021/11/07 09:03:15;;;;;;;28.77;4.03;;;;;;;9.87;68.85;101749.44;4936938;29;20051;-82
2021/11/07 09:08:18;;;;;;;25.50;3.75;;;;;;;9.95;69.13;101756.00;5014102;28;20462;-85
2021/11/07 09:10:45;;;;;;;19.67;4.40;;;;;;;9.95;69.09;101764.81;5013861;28;20065;-79
2021/11/07 09:13:11;;;;;;;25.60;4.03;;;;;;;10.00;68.47;101776.00;5013050;28;20042;-80
2021/11/07 09:15:43;;;;;;;23.77;3.58;;;;;;;10.12;68.35;101754.75;5013162;28;20091;-83
2021/11/07 09:18:09;;;;;;;19.15;3.95;;;;;;;10.37;68.01;101762.63;5013546;28;20033;-80
2021/11/07 09:23:15;;;;;;;20.25;4.35;;;;;;;11.14;64.93;101760.38;5013169;28;20125;-78
2021/11/07 09:26:14;;;;;;;22.75;4.07;;;;;;;10.93;64.68;101761.09;4996927;28;20325;-79
2021/11/07 09:28:33;;;;;;;19.83;3.65;;;;;;;10.67;65.99;101763.09;5012207;28;20084;-79
2021/11/07 09:31:49;;;;;;;19.30;3.80;;;;;;;10.55;67.55;101778.19;4996668;28;20042;-78
2021/11/07 09:36:29;;;;;;;23.90;4.03;;;;;;;10.62;66.43;101767.94;5013261;28;20131;-79
2021/11/07 09:39:07;;;;;;;19.88;4.43;;;;;;;10.77;66.19;101756.09;5012853;28;20034;-80
2021/11/07 09:44:19;;;;;;;25.10;4.07;;;;;;;10.72;65.79;101755.63;5013025;28;20092;-81
2021/11/07 09:49:30;;;;;;;20.55;3.25;;;;;;;10.48;65.94;101767.16;5054798;28;20037;-78
2021/11/07 09:52:06;;;;;;;18.40;3.70;;;;;;;10.50;65.41;101773.22;5054938;28;20032;-85
2021/11/07 09:54:33;;;;;;;19.77;4.00;;;;;;;10.53;64.76;101772.97;5055061;28;20095;-83
2021/11/07 09:57:00;;;;;;;19.70;3.10;;;;;;;10.65;64.70;101768.53;5037346;28;20044;-80
2021/11/07 09:59:28;;;;;;;18.02;3.20;;;;;;;10.85;64.57;101771.47;5054022;28;20439;-83
2021/11/07 10:02:03;;;;;;;26.55;3.65;;;;;;;10.91;65.44;101779.00;5055140;28;20021;-84
2021/11/07 10:04:35;;;;;;;22.83;4.28;;;;;;;10.91;65.41;101787.84;5054600;28;20123;-85
2021/11/07 10:07:13;;;;;;;20.10;3.45;;;;;;;10.78;65.66;101776.44;5037491;28;20469;-81
2021/11/07 10:09:40;;;;;;;22.63;3.70;;;;;;;10.74;65.96;101778.47;5054386;28;20384;-82
2021/11/07 10:12:16;;;;;;;17.60;3.72;;;;;;;10.72;65.65;101779.56;5055073;28;20052;-85
2021/11/07 10:14:45;;;;;;;22.65;3.50;;;;;;;10.92;66.02;101768.22;5036745;28;20025;-83
2021/11/07 10:17:23;;;;;;;17.48;3.53;;;;;;;10.99;65.19;101778.41;5036889;28;20032;-85
2021/11/07 10:20:10;;;;;;;27.75;3.75;;;;;;;11.19;65.72;101764.38;5054269;28;20380;-83
2021/11/07 10:22:36;;;;;;;22.00;3.05;;;;;;;11.36;66.21;101767.53;5037163;28;20377;-88
2021/11/07 10:25:06;;;;;;;21.50;4.13;;;;;;;11.20;64.98;101775.91;5054800;28;20033;-80
2021/11/07 10:27:38;;;;;;;20.42;3.75;;;;;;;11.08;66.56;101767.88;5054331;28;20033;-83
2021/11/07 10:30:18;;;;;;;19.65;3.42;;;;;;;10.86;65.21;101774.03;5055008;28;20414;-84
2021/11/07 10:32:57;;;;;;;19.83;3.72;;;;;;;10.74;65.94;101764.31;5054723;28;20056;-83
2021/11/07 10:40:46;;;;;;;25.55;4.60;;;;;;;10.71;65.49;101769.88;5054494;28;20151;-82
2021/11/07 10:53:43;;;;;;;21.13;3.70;;;;;;;10.44;66.28;101779.00;5054221;28;20476;-81
2021/11/07 10:56:10;;;;;;;24.35;4.38;;;;;;;10.39;67.31;101776.69;5054132;28;20037;-82
2021/11/07 10:58:38;;;;;;;30.85;4.13;;;;;;;10.46;66.89;101776.22;5053602;28;20108;-79
2021/11/07 11:01:11;;;;;;;23.88;4.18;;;;;;;10.50;65.68;101773.22;5053781;28;20021;-80
2021/11/07 11:03:44;;;;;;;24.48;3.78;;;;;;;10.47;67.31;101760.13;5053706;28;20029;-81
2021/11/07 11:06:13;;;;;;;23.60;4.70;;;;;;;10.45;66.11;101762.06;5054139;28;20116;-80
2021/11/07 11:09:06;;;;;;;26.27;4.78;;;;;;;10.50;65.86;101762.56;5053558;28;20051;-81
2021/11/07 11:11:48;;;;;;;17.95;3.72;;;;;;;10.64;67.16;101747.38;5054451;28;20029;-81
2021/11/07 11:14:27;;;;;;;25.17;4.15;;;;;;;10.79;64.98;101755.97;5054785;28;20036;-83
2021/11/07 11:16:57;;;;;;;26.23;4.47;;;;;;;10.98;63.92;101776.72;5053490;28;20033;-82
2021/11/07 11:32:55;;;;;;;27.13;4.72;;;;;;;11.00;65.45;101780.97;5053125;28;20378;-81
2021/11/07 11:40:26;;;;;;;24.20;4.50;;;;;;;11.34;65.26;101767.66;5053107;28;20084;-80
2021/11/07 11:42:59;;;;;;;28.73;4.43;;;;;;;11.11;64.55;101794.28;5034725;28;20470;-83
2021/11/07 11:45:32;;;;;;;30.00;4.22;;;;;;;11.01;64.79;101781.81;5053179;28;20040;-80
2021/11/07 12:00:48;;;;;;;27.58;5.32;;;;;;;10.70;66.12;101777.03;5052895;28;20073;-80
2021/11/07 12:06:29;;;;;;;31.65;4.20;;;;;;;10.70;65.74;101778.81;5052872;28;20116;-79
2021/11/07 12:11:52;;;;;;;31.13;4.53;;;;;;;11.20;64.47;101775.91;5052129;28;20045;-82
2021/11/07 12:14:31;;;;;;;22.95;4.28;;;;;;;11.22;63.36;101764.13;5052779;28;20025;-81
2021/11/07 12:17:01;;;;;;;35.80;4.78;;;;;;;11.29;64.21;101769.84;5052218;28;20482;-81
2021/11/07 12:19:38;;;;;;;27.95;5.00;;;;;;;11.15;64.78;101770.94;5052839;28;20055;-81
2021/11/07 12:22:05;;;;;;;26.25;4.47;;;;;;;10.98;65.12;101769.56;5051775;28;20108;-79
2021/11/07 12:24:37;;;;;;;27.58;4.65;;;;;;;10.77;65.89;101772.06;5034485;28;20086;-79
2021/11/07 12:27:17;;;;;;;;;;;;;;;10.67;67.40;101774.56;5052430;28;20040;-78
2021/11/07 12:29:44;;;;;;;26.30;4.03;;;;;;;11.05;66.72;101767.28;5051988;28;20010;-82
2021/11/07 12:32:10;;;;;;;23.55;4.30;;;;;;;11.30;64.97;101771.53;5052361;28;20356;-83
2021/11/07 12:35:23;;;;;;;37.30;4.68;;;;;;;11.50;64.11;101769.13;5052245;28;20544;-83
2021/11/07 12:40:50;;;;;;;33.22;4.82;;;;;;;11.47;64.63;101773.69;5052331;28;20040;-83
2021/11/07 12:43:18;;;;;;;33.33;5.43;;;;;;;11.27;66.59;101769.09;5051879;28;20084;-83
2021/11/07 12:45:48;;;;;;;38.00;5.30;;;;;;;11.29;66.34;101769.84;5051917;28;20441;-80
2021/11/07 12:48:41;;;;;;;31.13;4.95;;;;;;;11.10;66.87;101787.25;5034791;28;20037;-84
2021/11/07 12:51:12;;;;;;;27.17;4.47;;;;;;;11.04;65.87;101771.75;5051935;28;20061;-83
2021/11/07 12:53:59;;;;;;;38.45;5.28;;;;;;;10.96;66.89;101779.50;5052177;28;20029;-81
2021/11/07 12:56:46;;;;;;;38.30;4.70;;;;;;;11.17;67.02;101773.47;5052542;28;20040;-83
2021/11/07 12:59:26;;;;;;;32.78;5.72;;;;;;;11.04;67.16;101778.91;5052338;28;20033;-80
2021/11/07 13:02:02;;;;;;;28.85;4.80;;;;;;;11.01;68.49;101779.16;5051483;28;20119;-82
2021/11/07 13:07:55;;;;;;;35.83;5.32;;;;;;;10.77;67.36;101772.06;5015096;28;20036;-82
2021/11/07 13:10:56;;;;;;;33.25;5.35;;;;;;;10.61;67.59;101764.41;5051852;28;20190;-81
2021/11/07 13:13:51;;;;;;;31.40;6.22;;;;;;;10.56;68.05;101772.75;5052376;28;20025;-80
2021/11/07 13:21:35;;;;;;;34.38;4.95;;;;;;;10.33;69.45;101773.59;5052175;28;20037;-84
2021/11/07 13:27:30;;;;;;;27.75;4.65;;;;;;;10.55;66.86;101764.88;4990211;28;20038;-86
2021/11/07 13:30:02;;;;;;;36.65;5.28;;;;;;;10.55;66.77;101764.88;4990175;28;20041;-83
2021/11/07 13:34:56;;;;;;;34.10;5.40;;;;;;;10.35;65.03;101775.22;5053974;28;20064;-78
2021/11/07 13:37:29;;;;;;;31.52;5.53;;;;;;;10.33;66.96;101765.59;5055444;28;20037;-81
2021/11/07 13:40:05;;;;;;;26.90;4.75;;;;;;;10.31;65.47;101763.06;5055043;28;20029;-80
2021/11/07 13:42:36;;;;;;;32.55;4.68;;;;;;;10.37;65.99;101775.94;5055155;28;20107;-84
2021/11/07 13:45:04;;;;;;;35.42;5.07;;;;;;;10.38;65.83;101774.13;5055003;28;20031;-82
2021/11/07 13:47:37;;;;;;;38.42;5.15;;;;;;;10.30;64.03;101765.84;5055090;28;20029;-82
2021/11/07 13:50:08;;;;;;;30.30;5.40;;;;;;;10.21;65.61;101770.03;5054513;28;20036;-81
2021/11/07 13:52:34;;;;;;;31.77;4.55;;;;;;;10.21;66.05;101776.22;5055584;28;20028;-85
2021/11/07 13:55:00;;;;;;;37.90;5.50;;;;;;;10.25;67.84;101790.13;5054940;28;20029;-85
2021/11/07 13:57:31;;;;;;;30.20;4.78;;;;;;;10.09;72.48;101779.78;5055274;28;20435;-81